Pagrindinis puslapis
METAR-TAF:

METAR-TAF

Oro uostai :

Korientesas, Argentina

platuma: 27-27S, ilguma: 058-46W, Aukštis: 62 m

Dabartinis oras

Ataskaita buvo paskelbta 12 minutes, ne 16:00 UTC
Vėjas 17 kt iš Pietų/Pietvakarių
Temperatūra 25°C
Drėgmė 74%
Slėgis 1009 hPa
Matomumas: 4000 m
Išsisklaidę debesys ne aukštis 2500 ft
migla

METAR: SARC 161600Z 20017KT 4000 HZ SCT025 25/20 Q1009

Laikas: 13:12 (16:12 UTC)


TAF: trūkstamas

Orai ataskaitas ir orų prognozės (METAR, TAF).

turimą stotys yra geltonos ir raudonos taškus žemėlapyje.

Perkelti pele per norėdami pamatyti stoties vardą.

Tada spustelėkite, norėdami matyti oro stebėjimo ir prognozės.

Norėdami pakeisti žemėlapį: spustelėkite ant žalios mygtukų su juodo kryžiaus žemyn,; žalią mygtuką su brūkšneliu, jei norite nutolinti; arba žalių rodyklių gretimoms žemėlapius.


METAR-TAF: